Time;durP1;ratioP1;P1;durP2;ratioP2;P2;SDS_P1;SDS_P2;PMS_P1;PMS_P2;Temp;Humidity;BMP_temperature;BMP_pressure;BME280_temperature;BME280_humidity;BME280_pressure;Samples;Min_cycle;Max_cycle;Signal;HPM_P1;HPM_P2
2022/04/24 00:00:06;;;;;;;39.90;27.15;;;9.00;99.90;;;;;;5045604;28;20032;-81
2022/04/24 00:02:32;;;;;;;37.40;26.52;;;9.00;99.90;;;;;;5045377;28;20040;-81
2022/04/24 00:04:58;;;;;;;36.78;25.70;;;9.00;99.90;;;;;;5025959;28;20241;-80
2022/04/24 00:07:24;;;;;;;35.22;24.92;;;9.00;99.90;;;;;;5044052;28;20036;-81
2022/04/24 00:09:49;;;;;;;37.17;26.40;;;8.90;99.90;;;;;;5026413;28;20034;-81
2022/04/24 00:12:16;;;;;;;40.70;26.95;;;8.90;99.90;;;;;;5047344;28;20030;-81
2022/04/24 00:14:46;;;;;;;42.40;26.98;;;8.90;99.90;;;;;;5044483;28;20032;-81
2022/04/24 00:17:15;;;;;;;37.65;25.67;;;8.90;99.90;;;;;;5043994;28;20243;-81
2022/04/24 00:19:41;;;;;;;35.15;23.80;;;8.90;99.90;;;;;;5044254;28;20195;-80
2022/04/24 00:22:06;;;;;;;40.88;26.45;;;8.80;99.90;;;;;;5045177;28;20037;-82
2022/04/24 00:24:32;;;;;;;44.00;27.90;;;8.80;99.90;;;;;;5043405;28;20044;-81
2022/04/24 00:26:59;;;;;;;35.28;25.60;;;8.80;99.90;;;;;;5043773;28;20482;-80
2022/04/24 00:29:24;;;;;;;35.60;25.27;;;8.80;99.90;;;;;;5026329;28;20107;-80
2022/04/24 00:31:50;;;;;;;36.55;24.05;;;8.80;99.90;;;;;;5045062;28;20033;-80
2022/04/24 00:34:16;;;;;;;34.80;23.85;;;8.70;99.90;;;;;;5052507;28;20026;-81
2022/04/24 00:36:43;;;;;;;36.17;24.25;;;8.80;99.90;;;;;;5051255;28;20089;-81
2022/04/24 00:39:09;;;;;;;34.40;24.40;;;8.70;99.90;;;;;;5038706;28;20053;-80
2022/04/24 00:41:43;;;;;;;37.05;24.80;;;8.70;99.90;;;;;;5043470;28;20457;-81
2022/04/24 00:44:08;;;;;;;41.50;27.70;;;8.70;99.90;;;;;;5052963;28;20029;-80
2022/04/24 00:46:45;;;;;;;39.47;27.17;;;8.70;99.90;;;;;;5040496;28;20552;-81
2022/04/24 00:49:12;;;;;;;37.47;26.30;;;8.80;99.90;;;;;;5037632;28;20018;-80
2022/04/24 00:51:39;;;;;;;44.42;30.02;;;8.80;99.90;;;;;;5022931;28;20044;-81
2022/04/24 00:54:13;;;;;;;37.97;26.50;;;8.80;99.90;;;;;;5027444;28;20479;-81
2022/04/24 00:56:42;;;;;;;36.15;26.00;;;8.80;99.90;;;;;;5026198;28;20029;-80
2022/04/24 00:59:10;;;;;;;31.77;22.73;;;8.80;99.90;;;;;;5040037;28;20013;-80
2022/04/24 01:01:37;;;;;;;35.35;24.88;;;8.80;99.90;;;;;;5054937;28;20047;-80
2022/04/24 01:04:08;;;;;;;43.08;28.33;;;8.90;99.90;;;;;;5053658;28;20101;-79
2022/04/24 01:06:40;;;;;;;40.50;29.10;;;8.90;99.90;;;;;;5037202;28;20025;-80
2022/04/24 01:09:13;;;;;;;39.65;28.00;;;8.90;99.90;;;;;;5047087;28;20018;-80
2022/04/24 01:11:39;;;;;;;43.15;30.25;;;8.90;99.90;;;;;;5043302;28;20030;-80
2022/04/24 01:14:10;;;;;;;43.22;30.38;;;8.90;99.90;;;;;;5049088;28;20022;-80
2022/04/24 01:16:39;;;;;;;40.78;27.90;;;8.80;99.90;;;;;;5031082;28;20051;-80
2022/04/24 01:19:06;;;;;;;42.60;29.05;;;8.80;99.90;;;;;;5031713;28;20021;-80
2022/04/24 01:21:40;;;;;;;40.65;27.35;;;8.80;99.90;;;;;;5050233;28;20030;-80
2022/04/24 01:24:07;;;;;;;36.67;27.35;;;8.80;99.90;;;;;;5023112;28;20096;-80
2022/04/24 01:26:55;;;;;;;44.83;28.92;;;8.70;99.90;;;;;;5008387;28;20045;-81
2022/04/24 01:29:25;;;;;;;41.58;28.50;;;8.70;99.90;;;;;;5023954;28;20044;-81
2022/04/24 01:31:54;;;;;;;47.38;30.38;;;8.70;99.90;;;;;;5028816;28;20052;-81
2022/04/24 01:34:21;;;;;;;40.63;27.13;;;8.70;99.90;;;;;;5031503;28;20040;-80
2022/04/24 01:36:47;;;;;;;39.47;26.92;;;8.80;99.90;;;;;;5033329;28;20030;-81
2022/04/24 01:39:17;;;;;;;38.88;26.00;;;8.80;99.90;;;;;;5036515;28;20046;-81
2022/04/24 01:41:43;;;;;;;39.95;26.48;;;8.80;99.90;;;;;;5045865;28;20620;-79
2022/04/24 01:44:09;;;;;;;31.90;23.17;;;8.80;99.90;;;;;;5027741;28;20033;-81
2022/04/24 01:46:35;;;;;;;38.30;27.08;;;8.80;99.90;;;;;;5046483;28;20029;-80
2022/04/24 01:49:01;;;;;;;40.85;28.20;;;8.80;99.90;;;;;;5046869;28;20192;-82
2022/04/24 01:51:26;;;;;;;42.88;30.52;;;8.80;99.90;;;;;;5048433;28;20030;-81
2022/04/24 01:53:52;;;;;;;39.35;27.58;;;8.80;99.90;;;;;;5031188;28;20491;-81
2022/04/24 01:56:18;;;;;;;39.90;27.70;;;8.80;99.90;;;;;;5043308;28;20021;-81
2022/04/24 01:58:44;;;;;;;39.85;27.60;;;8.70;99.90;;;;;;5051571;28;20098;-80
2022/04/24 02:01:09;;;;;;;44.00;28.63;;;8.70;99.90;;;;;;5051913;28;20052;-81
2022/04/24 02:03:36;;;;;;;42.08;28.42;;;8.70;99.90;;;;;;5042515;28;20450;-82
2022/04/24 02:06:04;;;;;;;40.92;28.73;;;8.70;99.90;;;;;;5044459;28;20101;-81
2022/04/24 02:08:31;;;;;;;43.08;28.75;;;8.70;99.90;;;;;;5044148;28;20030;-82
2022/04/24 02:10:58;;;;;;;46.92;31.92;;;8.80;99.90;;;;;;5026706;28;20025;-82
2022/04/24 02:13:24;;;;;;;43.05;30.20;;;8.80;99.90;;;;;;5044177;28;20018;-81
2022/04/24 02:15:50;;;;;;;47.28;31.33;;;8.80;99.90;;;;;;5044369;28;20523;-81
2022/04/24 02:18:16;;;;;;;42.65;29.63;;;8.80;99.90;;;;;;5043416;28;20155;-81
2022/04/24 02:20:42;;;;;;;42.53;29.23;;;8.80;99.90;;;;;;5044555;28;20030;-81
2022/04/24 02:23:08;;;;;;;36.38;24.90;;;8.80;99.90;;;;;;5043201;28;20044;-81
2022/04/24 02:25:34;;;;;;;44.88;29.48;;;8.80;99.90;;;;;;5043924;28;20029;-82
2022/04/24 02:28:00;;;;;;;44.30;29.67;;;8.80;99.90;;;;;;5043880;28;20109;-81
2022/04/24 02:30:30;;;;;;;41.58;28.85;;;8.70;99.90;;;;;;5045230;28;20040;-81
2022/04/24 02:32:58;;;;;;;42.80;28.63;;;8.70;99.90;;;;;;5031385;28;20115;-80
2022/04/24 02:35:25;;;;;;;44.47;28.92;;;8.70;99.90;;;;;;5026367;28;20022;-81
2022/04/24 02:37:51;;;;;;;49.40;32.85;;;8.70;99.90;;;;;;5042367;28;20041;-80
2022/04/24 02:40:21;;;;;;;45.00;30.10;;;8.70;99.90;;;;;;5025181;28;20026;-80
2022/04/24 02:42:47;;;;;;;43.50;28.58;;;8.70;99.90;;;;;;5043528;28;20083;-79
2022/04/24 02:45:13;;;;;;;48.47;32.60;;;8.60;99.90;;;;;;5046776;28;20029;-80
2022/04/24 02:47:39;;;;;;;42.70;29.88;;;8.60;99.90;;;;;;5046456;28;20025;-79
2022/04/24 02:50:05;;;;;;;49.88;32.45;;;8.60;99.90;;;;;;5047296;28;20025;-80
2022/04/24 02:52:31;;;;;;;48.65;32.10;;;8.50;99.90;;;;;;5046769;28;20035;-80
2022/04/24 02:54:57;;;;;;;50.47;32.78;;;8.50;99.90;;;;;;5030167;28;20018;-82
2022/04/24 02:57:23;;;;;;;46.03;30.02;;;8.50;99.90;;;;;;5059066;28;20053;-79
2022/04/24 02:59:49;;;;;;;46.67;30.92;;;8.50;99.90;;;;;;5059362;28;20032;-80
2022/04/24 03:02:18;;;;;;;49.22;31.05;;;8.50;99.90;;;;;;5059784;28;20021;-80
2022/04/24 03:04:45;;;;;;;45.60;30.75;;;8.50;99.90;;;;;;5035379;28;20111;-80
2022/04/24 03:07:11;;;;;;;52.05;32.85;;;8.50;99.90;;;;;;5041607;28;20056;-80
2022/04/24 03:09:37;;;;;;;51.10;34.25;;;8.60;99.90;;;;;;5041431;28;20022;-80
2022/04/24 03:12:03;;;;;;;54.95;35.15;;;8.60;99.90;;;;;;5043568;28;20089;-80
2022/04/24 03:14:28;;;;;;;51.58;33.47;;;8.60;99.90;;;;;;5043714;28;20089;-80
2022/04/24 03:16:54;;;;;;;54.00;33.45;;;8.50;99.90;;;;;;5045348;28;20025;-80
2022/04/24 03:19:20;;;;;;;53.75;34.25;;;8.50;99.90;;;;;;5046159;28;20021;-81
2022/04/24 03:21:46;;;;;;;50.17;33.13;;;8.50;99.90;;;;;;5029179;28;20089;-80
2022/04/24 03:24:12;;;;;;;47.72;31.88;;;8.50;99.90;;;;;;5045128;28;20029;-80
2022/04/24 03:26:38;;;;;;;43.55;29.17;;;8.50;99.90;;;;;;5047551;28;20056;-80
2022/04/24 03:29:03;;;;;;;40.53;27.35;;;8.50;99.90;;;;;;5046308;28;20025;-80
2022/04/24 03:31:29;;;;;;;45.63;31.27;;;8.50;99.90;;;;;;5046026;28;20036;-80
2022/04/24 03:33:55;;;;;;;51.72;34.72;;;8.50;99.90;;;;;;5046709;28;20029;-81
2022/04/24 03:36:20;;;;;;;50.38;33.20;;;8.60;99.90;;;;;;5030440;28;20021;-80
2022/04/24 03:38:47;;;;;;;54.75;33.25;;;8.70;99.90;;;;;;5048762;28;20029;-80
2022/04/24 03:41:12;;;;;;;50.72;32.35;;;8.80;99.90;;;;;;5047566;28;20406;-81
2022/04/24 03:43:38;;;;;;;51.00;34.38;;;9.00;99.90;;;;;;5028912;28;20059;-79
2022/04/24 03:46:07;;;;;;;46.35;31.90;;;9.00;99.90;;;;;;5046689;28;20053;-81
2022/04/24 03:48:34;;;;;;;45.33;31.02;;;9.10;99.90;;;;;;5027459;28;20037;-80
2022/04/24 03:51:00;;;;;;;47.63;32.70;;;9.10;99.90;;;;;;5045929;28;20442;-81
2022/04/24 03:53:25;;;;;;;47.33;32.15;;;9.20;99.90;;;;;;5039696;28;20051;-82
2022/04/24 03:55:51;;;;;;;49.95;33.63;;;9.20;99.90;;;;;;5030724;28;20044;-83
2022/04/24 03:58:17;;;;;;;48.70;32.97;;;9.10;99.90;;;;;;5025385;28;20033;-80
2022/04/24 04:00:42;;;;;;;43.22;30.05;;;9.10;99.90;;;;;;5035501;28;20041;-80
2022/04/24 04:03:08;;;;;;;40.03;29.42;;;9.10;99.90;;;;;;5051579;28;20033;-81
2022/04/24 04:05:37;;;;;;;44.00;30.77;;;9.10;99.90;;;;;;5047035;28;20033;-82
2022/04/24 04:08:04;;;;;;;48.45;32.65;;;9.00;99.90;;;;;;5046922;28;20029;-80
2022/04/24 04:10:30;;;;;;;50.63;33.67;;;9.10;99.90;;;;;;5036129;28;20021;-82
2022/04/24 04:12:56;;;;;;;45.50;30.83;;;9.00;99.90;;;;;;5052782;28;20033;-82
2022/04/24 04:15:22;;;;;;;40.70;28.83;;;9.00;99.90;;;;;;5032831;28;20021;-81
2022/04/24 04:17:48;;;;;;;44.97;30.70;;;9.00;99.90;;;;;;5033085;28;20036;-81
2022/04/24 04:20:20;;;;;;;43.58;29.85;;;9.00;99.90;;;;;;5024491;28;20022;-82
2022/04/24 04:22:52;;;;;;;36.97;25.75;;;8.90;99.90;;;;;;5045795;28;20033;-82
2022/04/24 04:25:19;;;;;;;34.60;23.52;;;9.00;99.90;;;;;;5052223;28;20041;-82
2022/04/24 04:27:45;;;;;;;37.58;24.95;;;9.00;99.90;;;;;;5026516;28;20457;-81
2022/04/24 04:30:11;;;;;;;38.75;26.38;;;9.00;99.90;;;;;;5045321;28;20029;-82
2022/04/24 04:32:37;;;;;;;33.05;24.50;;;9.00;99.90;;;;;;5027887;28;20029;-82
2022/04/24 04:35:04;;;;;;;33.88;24.25;;;9.00;99.90;;;;;;5030040;28;20075;-83
2022/04/24 04:37:33;;;;;;;33.50;24.15;;;9.10;99.90;;;;;;5048658;28;20025;-83
2022/04/24 04:40:00;;;;;;;35.03;23.85;;;9.10;99.90;;;;;;5048116;28;20151;-82
2022/04/24 04:42:26;;;;;;;28.13;20.27;;;9.10;99.90;;;;;;5048666;28;20053;-82
2022/04/24 04:44:51;;;;;;;37.35;25.45;;;9.20;99.90;;;;;;5030701;28;20025;-82
2022/04/24 04:47:17;;;;;;;33.70;24.70;;;9.20;99.90;;;;;;5048453;28;20033;-81
2022/04/24 04:49:43;;;;;;;31.73;22.52;;;9.30;99.90;;;;;;5046198;28;20064;-82
2022/04/24 04:52:08;;;;;;;28.63;21.42;;;9.40;99.90;;;;;;5042742;28;20110;-82
2022/04/24 04:54:34;;;;;;;31.13;22.00;;;9.50;99.90;;;;;;5037330;28;20546;-83
2022/04/24 04:57:00;;;;;;;28.02;20.23;;;9.60;99.90;;;;;;5042873;28;20026;-84
2022/04/24 04:59:26;;;;;;;29.10;21.48;;;9.70;99.90;;;;;;5039400;28;20030;-81
2022/04/24 05:01:51;;;;;;;31.45;23.02;;;9.70;99.90;;;;;;5041529;28;20056;-82
2022/04/24 05:04:17;;;;;;;31.15;21.73;;;9.80;99.90;;;;;;5041703;28;20021;-81
2022/04/24 05:06:42;;;;;;;32.08;23.85;;;9.90;99.90;;;;;;5041251;28;20033;-82
2022/04/24 05:09:08;;;;;;;31.55;23.08;;;10.00;99.90;;;;;;5022528;28;20065;-82
2022/04/24 05:11:34;;;;;;;34.72;23.95;;;10.00;99.90;;;;;;5041576;28;20026;-82
2022/04/24 05:13:59;;;;;;;31.70;23.20;;;10.10;99.90;;;;;;5041315;28;20018;-82
2022/04/24 05:16:25;;;;;;;30.73;22.30;;;10.20;99.90;;;;;;5023042;28;20247;-82
2022/04/24 05:18:51;;;;;;;29.55;21.17;;;10.20;99.90;;;;;;5040403;28;20359;-82
2022/04/24 05:21:17;;;;;;;26.80;18.58;;;10.30;99.90;;;;;;5041620;28;20038;-79
2022/04/24 05:23:45;;;;;;;23.48;18.08;;;10.40;99.90;;;;;;5033826;28;20394;-80
2022/04/24 05:26:12;;;;;;;28.77;20.50;;;10.40;99.90;;;;;;5040268;28;20060;-79
2022/04/24 05:28:38;;;;;;;26.15;19.02;;;10.50;99.90;;;;;;5043487;28;20032;-80
2022/04/24 05:31:05;;;;;;;28.20;20.77;;;10.70;99.90;;;;;;5042510;28;20029;-81
2022/04/24 05:33:31;;;;;;;31.60;22.70;;;10.70;99.90;;;;;;5042026;28;20021;-80
2022/04/24 05:35:58;;;;;;;27.05;20.42;;;10.80;99.90;;;;;;5042478;28;20049;-80
2022/04/24 05:38:26;;;;;;;30.40;21.20;;;10.80;99.90;;;;;;5041053;28;20017;-81
2022/04/24 05:40:52;;;;;;;26.83;19.95;;;10.90;99.90;;;;;;5025371;28;20536;-80
2022/04/24 05:43:17;;;;;;;27.20;19.67;;;10.90;99.90;;;;;;5020871;28;20112;-81
2022/04/24 05:45:43;;;;;;;25.77;18.33;;;11.00;99.90;;;;;;5020615;28;20026;-80
2022/04/24 05:48:09;;;;;;;24.13;18.08;;;11.00;99.90;;;;;;5021926;28;20081;-79
2022/04/24 05:50:35;;;;;;;27.08;19.08;;;11.10;99.90;;;;;;5021211;28;20028;-81
2022/04/24 05:53:02;;;;;;;25.38;17.95;;;11.20;99.90;;;;;;5038316;28;20025;-81
2022/04/24 05:55:28;;;;;;;25.98;19.75;;;11.20;99.90;;;;;;5040873;28;20018;-82
2022/04/24 05:57:54;;;;;;;23.80;18.70;;;11.20;99.90;;;;;;5042102;28;20045;-82
2022/04/24 06:00:21;;;;;;;29.30;20.23;;;11.30;99.90;;;;;;5048081;28;20051;-80
2022/04/24 06:02:47;;;;;;;27.55;19.13;;;11.30;99.90;;;;;;5049857;28;20021;-80
2022/04/24 06:05:13;;;;;;;24.48;18.02;;;11.40;99.60;;;;;;5051030;28;20081;-79
2022/04/24 06:07:42;;;;;;;26.75;18.55;;;11.40;99.00;;;;;;5046748;28;20048;-79
2022/04/24 06:10:09;;;;;;;24.23;18.20;;;11.50;98.90;;;;;;5045971;28;20025;-80
2022/04/24 06:12:52;;;;;;;21.20;16.73;;;11.50;98.80;;;;;;5041692;28;20036;-79
2022/04/24 06:15:20;;;;;;;;;;;11.60;99.10;;;;;;5044054;28;20107;-79
2022/04/24 06:17:47;;;;;;;24.42;18.13;;;11.60;98.30;;;;;;5041005;28;19905;-80
2022/04/24 06:20:24;;;;;;;23.48;17.45;;;11.70;97.90;;;;;;5040467;28;20029;-81
2022/04/24 06:22:51;;;;;;;24.98;18.45;;;11.80;98.20;;;;;;5037779;28;20147;-80
2022/04/24 06:25:22;;;;;;;25.63;18.50;;;11.80;97.10;;;;;;5040417;28;20037;-80
2022/04/24 06:27:50;;;;;;;23.00;16.77;;;11.90;96.80;;;;;;5039345;28;20052;-81
2022/04/24 06:30:17;;;;;;;23.52;15.45;;;11.90;96.60;;;;;;5042593;28;20082;-81
2022/04/24 06:32:44;;;;;;;20.50;15.15;;;11.90;96.90;;;;;;5041948;28;20033;-79
2022/04/24 06:35:12;;;;;;;21.02;15.02;;;11.90;96.60;;;;;;5019497;28;20500;-79
2022/04/24 06:37:38;;;;;;;15.60;12.55;;;12.00;96.50;;;;;;5021741;28;20026;-79
2022/04/24 06:40:09;;;;;;;19.77;14.63;;;12.00;96.50;;;;;;5026065;28;20028;-80
2022/04/24 06:42:46;;;;;;;21.75;14.25;;;12.10;95.80;;;;;;5049449;28;20025;-80
2022/04/24 06:45:12;;;;;;;15.10;12.50;;;12.30;95.20;;;;;;5052204;28;20075;-80
2022/04/24 06:47:37;;;;;;;15.55;12.15;;;12.40;94.60;;;;;;5050808;28;20053;-80
2022/04/24 06:50:03;;;;;;;15.00;11.10;;;12.60;94.40;;;;;;5041823;28;20044;-79
2022/04/24 06:52:29;;;;;;;13.73;10.25;;;12.70;94.00;;;;;;5036610;28;20105;-78
2022/04/24 06:54:55;;;;;;;12.13;9.32;;;12.80;92.90;;;;;;5035347;28;20061;-78
2022/04/24 06:57:20;;;;;;;10.88;8.77;;;12.80;92.40;;;;;;5034532;28;20022;-79
2022/04/24 06:59:46;;;;;;;10.65;8.55;;;12.90;92.20;;;;;;5034959;28;20038;-79
2022/04/24 07:02:12;;;;;;;12.15;7.88;;;12.90;92.30;;;;;;5035832;28;20025;-79
2022/04/24 07:04:37;;;;;;;9.52;7.38;;;13.00;91.00;;;;;;5036974;28;20510;-79
2022/04/24 07:07:03;;;;;;;10.63;8.50;;;13.00;91.40;;;;;;5038461;28;20032;-79
2022/04/24 07:09:29;;;;;;;10.32;7.70;;;13.20;90.70;;;;;;5035944;28;20057;-79
2022/04/24 07:11:55;;;;;;;9.10;7.32;;;13.30;90.40;;;;;;5034562;28;20035;-80
2022/04/24 07:14:21;;;;;;;6.88;5.65;;;13.30;90.10;;;;;;5035145;28;20021;-79
2022/04/24 07:16:46;;;;;;;6.43;4.93;;;13.40;90.10;;;;;;5035003;28;20032;-79
2022/04/24 07:19:12;;;;;;;5.10;4.32;;;13.40;88.50;;;;;;5016231;28;20148;-80
2022/04/24 07:21:38;;;;;;;4.35;3.95;;;13.30;89.00;;;;;;5017191;28;20025;-79
2022/04/24 07:24:04;;;;;;;4.72;3.67;;;13.40;88.90;;;;;;5033655;28;20097;-81
2022/04/24 07:26:30;;;;;;;3.58;3.25;;;13.60;87.40;;;;;;5017060;28;20156;-79
2022/04/24 07:28:56;;;;;;;3.67;2.88;;;13.60;86.40;;;;;;5039649;28;20347;-78
2022/04/24 07:31:21;;;;;;;4.03;3.10;;;13.60;84.80;;;;;;5043349;28;20059;-79
2022/04/24 07:33:47;;;;;;;2.58;2.38;;;13.70;84.50;;;;;;5042409;28;20024;-80
2022/04/24 07:36:12;;;;;;;2.17;1.98;;;13.70;84.00;;;;;;5038562;28;20029;-79
2022/04/24 07:38:39;;;;;;;2.05;1.63;;;13.60;82.10;;;;;;5042480;28;20093;-79
2022/04/24 07:41:05;;;;;;;2.15;1.60;;;13.60;83.00;;;;;;5040713;28;20021;-80
2022/04/24 07:43:48;;;;;;;2.42;1.58;;;13.70;83.20;;;;;;5041096;28;20033;-79
2022/04/24 07:46:17;;;;;;;2.63;1.50;;;13.80;82.10;;;;;;5024123;28;20533;-79
2022/04/24 07:48:43;;;;;;;1.40;1.30;;;13.90;80.50;;;;;;5040334;28;20033;-79
2022/04/24 07:51:11;;;;;;;1.40;1.30;;;14.00;80.50;;;;;;5040225;28;20339;-79
2022/04/24 07:53:41;;;;;;;1.80;1.30;;;14.20;80.10;;;;;;5041056;28;20497;-79
2022/04/24 07:56:23;;;;;;;2.05;1.85;;;14.40;79.00;;;;;;5026656;28;20331;-79
2022/04/24 07:59:00;;;;;;;1.63;1.40;;;14.60;78.00;;;;;;5038330;28;20517;-81
2022/04/24 08:01:26;;;;;;;1.15;1.10;;;14.70;76.00;;;;;;5037169;28;20395;-80
2022/04/24 08:03:51;;;;;;;2.45;1.30;;;14.80;75.60;;;;;;5021478;28;20145;-80
2022/04/24 08:06:17;;;;;;;0.75;0.75;;;15.00;73.80;;;;;;5057096;28;20040;-82
2022/04/24 08:08:57;;;;;;;1.25;0.85;;;15.10;73.70;;;;;;5042420;28;20420;-80
2022/04/24 08:11:26;;;;;;;1.15;1.05;;;15.00;72.80;;;;;;5037554;28;20117;-80
2022/04/24 08:14:12;;;;;;;1.00;1.00;;;14.80;72.90;;;;;;5037874;28;20029;-80
2022/04/24 08:16:40;;;;;;;1.30;1.20;;;14.70;73.10;;;;;;5021063;28;20359;-80
2022/04/24 08:19:09;;;;;;;0.70;0.70;;;14.50;73.20;;;;;;5054557;28;20025;-80
2022/04/24 08:21:34;;;;;;;1.20;1.10;;;14.30;75.30;;;;;;5022141;28;20029;-82
2022/04/24 08:24:00;;;;;;;1.73;1.60;;;14.20;74.40;;;;;;5040559;28;20165;-82
2022/04/24 08:26:40;;;;;;;0.98;0.95;;;14.20;74.10;;;;;;5046945;28;20040;-77
2022/04/24 08:29:14;;;;;;;2.28;1.23;;;14.20;74.10;;;;;;5022397;28;20037;-80
2022/04/24 08:31:49;;;;;;;1.13;0.93;;;14.20;74.40;;;;;;5037517;28;20490;-79
2022/04/24 08:34:15;;;;;;;0.98;0.90;;;14.30;75.00;;;;;;5039349;28;20018;-79
2022/04/24 08:36:41;;;;;;;1.20;1.10;;;14.50;72.70;;;;;;5036989;28;20431;-77
2022/04/24 08:39:07;;;;;;;1.05;0.68;;;14.70;72.60;;;;;;5036617;28;20052;-81
2022/04/24 08:41:36;;;;;;;0.80;0.80;;;14.80;71.80;;;;;;5036658;28;20033;-81
2022/04/24 08:44:07;;;;;;;1.95;0.98;;;14.90;70.30;;;;;;5038382;28;20052;-79
2022/04/24 08:46:33;;;;;;;1.35;1.02;;;14.90;70.50;;;;;;5037528;28;20081;-80
2022/04/24 08:49:01;;;;;;;1.10;0.75;;;15.00;69.90;;;;;;5036589;28;20089;-81
2022/04/24 08:51:27;;;;;;;0.30;0.30;;;15.10;69.50;;;;;;5037538;28;20025;-81
2022/04/24 08:53:56;;;;;;;0.52;0.50;;;15.10;69.30;;;;;;5038244;28;20033;-81
2022/04/24 08:56:22;;;;;;;1.10;0.60;;;15.30;69.30;;;;;;5037815;28;20124;-80
2022/04/24 08:58:51;;;;;;;0.63;0.45;;;15.50;68.20;;;;;;5036641;28;20092;-87
2022/04/24 09:01:17;;;;;;;0.73;0.73;;;15.80;67.50;;;;;;5036936;28;20025;-79
2022/04/24 09:03:42;;;;;;;0.85;0.85;;;15.90;66.00;;;;;;5038347;28;20030;-80
2022/04/24 09:06:20;;;;;;;0.60;0.60;;;15.90;66.50;;;;;;5035877;28;20548;-79
2022/04/24 09:08:45;;;;;;;0.57;0.43;;;16.00;66.30;;;;;;5037535;28;20434;-79
2022/04/24 09:11:11;;;;;;;1.23;0.50;;;16.20;66.40;;;;;;5041558;28;20026;-79
2022/04/24 09:16:37;;;;;;;1.13;0.82;;;16.30;64.30;;;;;;5036079;28;20056;-80
2022/04/24 09:19:23;;;;;;;0.40;0.40;;;16.10;65.30;;;;;;5034989;28;20021;-79
2022/04/24 09:22:04;;;;;;;0.38;0.32;;;15.90;64.90;;;;;;5035830;28;20029;-80
2022/04/24 09:24:48;;;;;;;0.50;0.50;;;15.70;66.20;;;;;;5018098;28;20059;-80
2022/04/24 09:27:32;;;;;;;0.50;0.40;;;15.60;66.20;;;;;;5050267;28;20136;-80
2022/04/24 09:30:14;;;;;;;0.20;0.20;;;15.70;66.70;;;;;;5034795;28;20057;-79
2022/04/24 09:32:51;;;;;;;0.75;0.20;;;16.00;66.20;;;;;;5035116;28;20025;-79
2022/04/24 09:35:47;;;;;;;0.60;0.40;;;16.20;64.50;;;;;;5035477;28;20490;-79
2022/04/24 09:38:17;;;;;;;0.20;0.20;;;16.60;62.50;;;;;;5033100;28;20125;-79
2022/04/24 09:40:47;;;;;;;0.50;0.40;;;16.80;61.90;;;;;;5034826;28;20502;-79
2022/04/24 09:43:15;;;;;;;0.30;0.30;;;17.10;60.80;;;;;;5034393;28;20433;-79
2022/04/24 09:45:45;;;;;;;0.50;0.50;;;17.20;59.60;;;;;;5043031;28;20022;-79
2022/04/24 09:48:16;;;;;;;0.25;0.20;;;17.20;58.50;;;;;;5033544;28;20053;-79
2022/04/24 09:50:42;;;;;;;0.20;0.20;;;17.30;57.60;;;;;;5033930;28;20036;-80
2022/04/24 09:53:13;;;;;;;0.22;0.22;;;17.40;58.40;;;;;;5034351;28;20024;-82
2022/04/24 09:55:41;;;;;;;0.25;0.25;;;17.40;58.00;;;;;;5034493;28;20052;-80
2022/04/24 09:58:08;;;;;;;1.73;1.50;;;17.50;57.80;;;;;;5032284;28;20554;-78
2022/04/24 10:00:35;;;;;;;0.77;0.57;;;17.50;55.00;;;;;;5033283;28;20364;-79
2022/04/24 10:03:05;;;;;;;0.40;0.40;;;17.50;54.80;;;;;;5033101;28;20056;-79
2022/04/24 10:05:31;;;;;;;0.60;0.30;;;17.40;55.60;;;;;;5033199;28;20409;-79
2022/04/24 10:07:59;;;;;;;0.60;0.40;;;17.40;56.00;;;;;;5053817;28;20047;-83
2022/04/24 10:10:24;;;;;;;0.32;0.30;;;17.50;55.90;;;;;;5021159;28;20026;-78
2022/04/24 10:12:51;;;;;;;0.50;0.30;;;17.60;54.90;;;;;;5005656;28;20041;-79
2022/04/24 10:15:20;;;;;;;1.45;0.28;;;17.60;54.60;;;;;;5034779;28;20029;-79
2022/04/24 10:17:55;;;;;;;0.20;0.20;;;17.50;54.90;;;;;;5037714;28;20033;-79
2022/04/24 10:20:42;;;;;;;0.30;0.30;;;17.50;54.50;;;;;;5040511;28;20025;-78
2022/04/24 10:23:09;;;;;;;0.25;0.25;;;17.50;55.20;;;;;;5038921;28;20014;-80
2022/04/24 10:25:42;;;;;;;0.30;0.30;;;17.50;54.30;;;;;;5040528;28;20022;-80
2022/04/24 10:28:19;;;;;;;0.40;0.10;;;17.50;54.00;;;;;;5034769;28;20021;-79
2022/04/24 10:31:00;;;;;;;0.20;0.20;;;17.30;54.90;;;;;;5028579;28;20041;-79
2022/04/24 10:33:32;;;;;;;0.32;0.32;;;17.20;54.30;;;;;;5024917;28;20379;-80
2022/04/24 10:36:02;;;;;;;1.10;0.30;;;17.10;55.10;;;;;;5017358;28;20040;-80
2022/04/24 10:38:30;;;;;;;1.75;0.40;;;16.90;53.80;;;;;;5016080;28;20040;-79
2022/04/24 10:41:13;;;;;;;2.20;0.30;;;16.60;55.10;;;;;;5016836;28;20025;-79
2022/04/24 10:43:41;;;;;;;0.80;0.35;;;16.30;55.90;;;;;;5034338;28;20025;-79
2022/04/24 10:46:17;;;;;;;0.85;0.55;;;16.20;56.70;;;;;;5038686;28;20099;-81
2022/04/24 10:48:43;;;;;;;1.80;0.30;;;16.30;57.10;;;;;;5039367;28;20045;-84
2022/04/24 10:51:09;;;;;;;0.20;0.20;;;16.40;55.40;;;;;;5039081;28;20032;-85
2022/04/24 10:53:48;;;;;;;0.73;0.20;;;16.20;55.80;;;;;;5039326;28;20100;-86
2022/04/24 10:56:18;;;;;;;0.47;0.20;;;16.10;56.00;;;;;;5021854;28;20430;-84
2022/04/24 10:58:43;;;;;;;0.28;0.20;;;16.00;55.80;;;;;;5038151;28;20041;-86
2022/04/24 11:01:13;;;;;;;0.88;0.20;;;15.80;57.00;;;;;;5038306;28;20032;-86
2022/04/24 11:03:43;;;;;;;2.70;1.50;;;15.80;56.90;;;;;;5032713;28;20025;-85
2022/04/24 11:06:23;;;;;;;1.45;0.63;;;15.60;57.50;;;;;;5043012;28;20029;-85
2022/04/24 11:08:50;;;;;;;1.15;0.40;;;15.40;58.60;;;;;;5044796;28;20133;-82
2022/04/24 11:11:18;;;;;;;0.90;0.20;;;15.30;58.60;;;;;;5034229;28;20031;-80
2022/04/24 11:13:44;;;;;;;0.20;0.20;;;15.20;58.60;;;;;;5056476;28;20013;-80
2022/04/24 11:16:11;;;;;;;1.60;0.30;;;15.20;59.50;;;;;;5055765;28;20120;-81
2022/04/24 11:18:37;;;;;;;0.10;0.10;;;15.20;59.30;;;;;;5051138;28;20021;-81
2022/04/24 11:21:05;;;;;;;0.38;0.20;;;15.10;59.30;;;;;;5053174;28;20055;-81
2022/04/24 11:23:37;;;;;;;0.57;0.20;;;14.90;59.10;;;;;;5048391;28;20022;-81
2022/04/24 11:26:06;;;;;;;0.32;0.30;;;14.70;58.90;;;;;;5033915;28;20037;-81
2022/04/24 11:28:38;;;;;;;1.77;0.20;;;14.60;59.90;;;;;;5044904;28;20032;-81
2022/04/24 11:31:22;;;;;;;0.20;0.20;;;14.60;59.60;;;;;;5053234;28;20084;-80
2022/04/24 11:33:54;;;;;;;1.02;0.38;;;14.60;59.90;;;;;;5032786;28;20086;-80
2022/04/24 11:36:21;;;;;;;0.70;0.50;;;14.60;60.10;;;;;;5033000;28;20010;-82
2022/04/24 11:38:51;;;;;;;1.17;1.05;;;14.60;60.50;;;;;;5031868;28;20026;-82
2022/04/24 11:41:18;;;;;;;0.60;0.50;;;14.60;60.70;;;;;;5029982;28;20088;-81
2022/04/24 11:43:44;;;;;;;0.95;0.55;;;14.50;61.30;;;;;;5047261;28;20025;-81
2022/04/24 11:51:51;;;;;;;0.30;0.30;;;14.50;61.40;;;;;;4977912;28;20079;-83
2022/04/24 11:54:17;;;;;;;2.10;0.30;;;14.40;62.20;;;;;;5049331;28;20029;-82
2022/04/24 11:56:42;;;;;;;0.30;0.30;;;14.40;61.90;;;;;;5048974;28;20022;-82
2022/04/24 11:59:14;;;;;;;0.35;0.30;;;14.40;62.10;;;;;;5048200;28;20093;-83
2022/04/24 12:01:40;;;;;;;1.70;0.30;;;14.40;62.40;;;;;;5046006;28;20097;-84
2022/04/24 12:04:06;;;;;;;0.50;0.20;;;14.30;62.40;;;;;;5034767;28;20253;-82
2022/04/24 12:06:32;;;;;;;0.20;0.20;;;14.40;62.40;;;;;;5025619;28;20036;-82
2022/04/24 12:09:07;;;;;;;0.30;0.30;;;14.30;63.10;;;;;;5045840;28;20092;-83
2022/04/24 12:11:35;;;;;;;0.38;0.38;;;14.40;63.50;;;;;;5057473;28;20686;-86
2022/04/24 12:14:08;;;;;;;0.30;0.20;;;14.60;62.50;;;;;;5058549;28;20064;-86
2022/04/24 12:16:35;;;;;;;0.10;0.10;;;14.80;61.40;;;;;;5056531;28;20010;-84
2022/04/24 12:19:03;;;;;;;0.38;0.30;;;14.90;61.50;;;;;;5040461;28;20021;-83
2022/04/24 12:21:31;;;;;;;1.25;0.40;;;15.00;61.50;;;;;;5030135;28;20037;-83
2022/04/24 12:23:57;;;;;;;0.28;0.10;;;15.10;60.40;;;;;;5049528;28;20105;-84
2022/04/24 12:26:24;;;;;;;0.52;0.50;;;15.20;60.10;;;;;;5031122;28;20029;-83
2022/04/24 12:28:50;;;;;;;0.22;0.20;;;15.30;60.10;;;;;;5029968;28;20029;-85
2022/04/24 12:31:20;;;;;;;0.47;0.40;;;15.40;60.40;;;;;;5045605;28;20029;-85
2022/04/24 12:33:48;;;;;;;0.13;0.13;;;15.50;59.60;;;;;;5050676;28;20025;-83
2022/04/24 12:36:15;;;;;;;0.20;0.20;;;15.70;59.40;;;;;;5030786;28;20026;-82
2022/04/24 12:39:04;;;;;;;1.38;0.60;;;15.90;58.50;;;;;;5029808;28;20022;-84
2022/04/24 12:41:30;;;;;;;0.08;0.08;;;15.90;58.50;;;;;;5027297;28;20037;-82
2022/04/24 12:44:14;;;;;;;0.38;0.20;;;15.80;59.20;;;;;;5029169;28;20062;-85
2022/04/24 12:46:40;;;;;;;0.30;0.30;;;15.70;59.10;;;;;;5027558;28;20026;-83
2022/04/24 12:49:07;;;;;;;0.90;0.30;;;15.60;58.80;;;;;;5026074;28;20109;-83
2022/04/24 12:51:34;;;;;;;0.57;0.40;;;15.60;59.20;;;;;;5045212;28;20021;-84
2022/04/24 12:54:01;;;;;;;0.32;0.32;;;15.50;59.60;;;;;;5029211;28;20025;-81